Time;durP1;ratioP1;P1;durP2;ratioP2;P2;SDS_P1;SDS_P2;PMS_P1;PMS_P2;Temp;Humidity;BMP_temperature;BMP_pressure;BME280_temperature;BME280_humidity;BME280_pressure;Samples;Min_cycle;Max_cycle;Signal;HPM_P1;HPM_P2
2022/04/10 00:01:08;;;;;;;5.50;2.25;;;2.60;99.90;;;;;;4896082;29;20409;-63
2022/04/10 00:03:35;;;;;;;2.25;1.60;;;2.50;99.90;;;;;;4878844;29;20041;-63
2022/04/10 00:06:02;;;;;;;5.25;1.65;;;2.50;99.90;;;;;;4893030;29;20056;-63
2022/04/10 00:08:29;;;;;;;3.97;1.70;;;2.40;99.90;;;;;;4896306;29;20041;-63
2022/04/10 00:10:55;;;;;;;3.03;1.35;;;2.40;99.90;;;;;;4894376;29;20093;-63
2022/04/10 00:13:23;;;;;;;;;;;2.40;99.90;;;;;;4898516;29;20056;-63
2022/04/10 00:15:50;;;;;;;4.22;1.88;;;2.30;99.90;;;;;;4886095;29;19966;-63
2022/04/10 00:18:16;;;;;;;3.40;1.73;;;2.30;99.90;;;;;;4897657;29;20063;-63
2022/04/10 00:20:43;;;;;;;4.25;2.30;;;2.30;99.90;;;;;;4897539;29;20052;-63
2022/04/10 00:23:10;;;;;;;3.88;2.03;;;2.30;99.90;;;;;;4881135;29;20394;-63
2022/04/10 00:25:37;;;;;;;5.18;2.63;;;2.30;99.90;;;;;;4893651;29;20048;-63
2022/04/10 00:28:04;;;;;;;4.90;1.75;;;2.30;99.90;;;;;;4897031;29;20060;-63
2022/04/10 00:30:32;;;;;;;7.18;3.22;;;2.20;99.90;;;;;;4897547;29;20108;-63
2022/04/10 00:33:00;;;;;;;6.60;2.10;;;2.30;99.90;;;;;;4865157;29;20049;-63
2022/04/10 00:35:26;;;;;;;7.72;2.30;;;2.30;99.90;;;;;;4880614;29;20447;-64
2022/04/10 00:37:53;;;;;;;5.68;2.60;;;2.30;99.90;;;;;;4880913;29;20056;-63
2022/04/10 00:40:20;;;;;;;9.15;2.92;;;2.20;99.90;;;;;;4897220;29;20494;-63
2022/04/10 00:42:48;;;;;;;4.43;2.28;;;2.20;99.90;;;;;;4893142;29;20036;-63
2022/04/10 00:45:16;;;;;;;3.60;2.22;;;2.30;99.90;;;;;;4880676;29;20556;-63
2022/04/10 00:47:45;;;;;;;4.82;2.22;;;2.30;99.90;;;;;;4897330;29;20117;-63
2022/04/10 00:50:13;;;;;;;5.28;2.25;;;2.20;99.90;;;;;;4873892;29;20065;-63
2022/04/10 00:52:42;;;;;;;4.72;2.35;;;2.20;99.90;;;;;;4880587;29;20049;-63
2022/04/10 00:55:10;;;;;;;3.90;1.90;;;2.10;99.90;;;;;;4880433;29;20159;-63
2022/04/10 00:57:36;;;;;;;6.22;2.17;;;2.10;99.90;;;;;;4880627;29;20044;-63
2022/04/10 01:00:12;;;;;;;5.70;2.40;;;2.10;99.90;;;;;;4890795;29;20037;-63
2022/04/10 01:02:39;;;;;;;3.65;2.40;;;2.10;99.90;;;;;;4880226;29;20075;-63
2022/04/10 01:05:07;;;;;;;4.18;1.85;;;2.10;99.90;;;;;;4880462;29;20052;-63
2022/04/10 01:07:34;;;;;;;6.82;2.20;;;2.10;99.90;;;;;;4896338;29;20703;-63
2022/04/10 01:10:01;;;;;;;7.05;2.22;;;2.00;99.90;;;;;;4879766;29;20421;-63
2022/04/10 01:12:32;;;;;;;4.60;2.13;;;2.10;99.90;;;;;;4880222;29;20048;-63
2022/04/10 01:15:02;;;;;;;6.15;2.13;;;2.10;99.90;;;;;;4876491;29;20132;-63
2022/04/10 01:17:35;;;;;;;4.78;2.47;;;2.10;99.90;;;;;;4880110;29;20076;-63
2022/04/10 01:20:03;;;;;;;6.18;2.35;;;2.10;99.90;;;;;;4879732;29;20124;-63
2022/04/10 01:22:36;;;;;;;4.80;2.78;;;2.10;99.90;;;;;;4879991;29;20044;-63
2022/04/10 01:25:19;;;;;;;5.75;2.20;;;2.10;99.90;;;;;;4879679;29;20048;-63
2022/04/10 01:27:47;;;;;;;7.30;2.17;;;2.10;99.90;;;;;;4908059;29;20044;-64
2022/04/10 01:30:56;;;;;;;4.18;2.20;;;2.10;99.90;;;;;;4897426;29;20040;-65
2022/04/10 01:33:23;;;;;;;3.53;2.25;;;2.20;99.90;;;;;;4823787;29;20052;-65
2022/04/10 01:35:51;;;;;;;;;;;2.30;99.90;;;;;;4833142;29;20499;-65
2022/04/10 01:38:20;;;;;;;4.03;2.00;;;2.30;99.90;;;;;;4871553;29;19926;-65
2022/04/10 01:40:50;;;;;;;6.68;2.58;;;2.30;99.90;;;;;;4893424;29;20051;-65
2022/04/10 01:43:18;;;;;;;8.55;2.30;;;2.40;99.90;;;;;;4898662;29;20048;-65
2022/04/10 01:45:44;;;;;;;4.15;2.08;;;2.40;99.90;;;;;;4893279;29;20545;-65
2022/04/10 01:48:11;;;;;;;6.13;2.45;;;2.40;99.90;;;;;;4899553;29;20136;-65
2022/04/10 01:50:38;;;;;;;5.22;2.20;;;2.40;99.90;;;;;;4885075;29;20048;-65
2022/04/10 01:53:05;;;;;;;4.68;2.40;;;2.40;99.90;;;;;;4897274;29;20056;-65
2022/04/10 01:55:34;;;;;;;7.18;2.60;;;2.40;99.90;;;;;;4896033;29;20051;-65
2022/04/10 01:58:01;;;;;;;4.28;2.33;;;2.40;99.90;;;;;;4895140;29;20100;-65
2022/04/10 02:00:27;;;;;;;5.25;2.17;;;2.40;99.90;;;;;;4898050;29;20083;-65
2022/04/10 02:02:54;;;;;;;4.97;2.10;;;2.40;99.90;;;;;;4889838;29;20048;-65
2022/04/10 02:05:21;;;;;;;3.08;1.65;;;2.30;99.90;;;;;;4897492;29;20055;-65
2022/04/10 02:07:48;;;;;;;6.32;2.30;;;2.30;99.90;;;;;;4898381;29;20045;-65
2022/04/10 02:10:15;;;;;;;3.17;2.35;;;2.30;99.90;;;;;;4895567;29;20131;-65
2022/04/10 02:12:42;;;;;;;7.50;2.00;;;2.30;99.90;;;;;;4907221;29;20063;-65
2022/04/10 02:15:09;;;;;;;4.03;2.35;;;2.20;99.90;;;;;;4915180;29;20095;-65
2022/04/10 02:17:36;;;;;;;5.38;2.20;;;2.10;99.90;;;;;;4915120;29;20041;-65
2022/04/10 02:20:04;;;;;;;10.00;2.60;;;2.10;99.90;;;;;;4893464;29;20498;-65
2022/04/10 02:22:30;;;;;;;4.55;2.25;;;2.10;99.90;;;;;;4907128;29;20047;-65
2022/04/10 02:24:57;;;;;;;3.63;2.00;;;2.00;99.90;;;;;;4915224;29;20044;-65
2022/04/10 02:27:25;;;;;;;5.20;2.28;;;2.00;99.90;;;;;;4897990;29;20146;-65
2022/04/10 02:29:52;;;;;;;3.17;1.35;;;2.00;99.90;;;;;;4895514;29;20047;-65
2022/04/10 02:32:19;;;;;;;2.97;1.92;;;2.00;99.90;;;;;;4890128;29;20156;-65
2022/04/10 02:34:46;;;;;;;4.88;2.10;;;2.00;99.90;;;;;;4897957;29;20589;-65
2022/04/10 02:37:13;;;;;;;4.03;1.55;;;2.00;99.90;;;;;;4898242;29;20059;-65
2022/04/10 02:39:40;;;;;;;7.03;2.10;;;1.90;99.90;;;;;;4889247;29;20056;-65
2022/04/10 02:42:07;;;;;;;6.30;2.70;;;2.00;99.90;;;;;;4907222;29;20494;-65
2022/04/10 02:44:34;;;;;;;4.70;2.22;;;2.00;99.90;;;;;;4914923;29;20044;-64
2022/04/10 02:47:00;;;;;;;4.40;2.08;;;2.10;99.90;;;;;;4911998;29;20059;-65
2022/04/10 02:49:27;;;;;;;5.75;2.80;;;2.20;99.90;;;;;;4878985;29;20441;-65
2022/04/10 02:51:55;;;;;;;4.75;2.88;;;2.20;99.90;;;;;;4881308;29;20537;-65
2022/04/10 02:54:21;;;;;;;4.03;1.83;;;2.30;99.90;;;;;;4899705;29;20416;-65
2022/04/10 02:56:48;;;;;;;6.00;2.58;;;2.30;99.90;;;;;;4886241;29;20048;-65
2022/04/10 02:59:15;;;;;;;5.43;1.95;;;2.30;99.90;;;;;;4893462;29;20070;-65
2022/04/10 03:01:42;;;;;;;2.55;1.45;;;2.40;99.90;;;;;;4901184;29;20044;-65
2022/04/10 03:04:09;;;;;;;7.55;2.78;;;2.40;99.90;;;;;;4901373;29;20052;-65
2022/04/10 03:06:36;;;;;;;3.67;2.40;;;2.40;99.90;;;;;;4893285;29;20439;-65
2022/04/10 03:09:03;;;;;;;5.13;2.70;;;2.40;99.90;;;;;;4898191;29;20461;-65
2022/04/10 03:11:30;;;;;;;7.63;3.40;;;2.40;99.90;;;;;;4900764;29;20410;-65
2022/04/10 03:13:58;;;;;;;9.05;3.45;;;2.40;99.90;;;;;;4899899;29;20095;-65
2022/04/10 03:16:25;;;;;;;5.05;3.20;;;2.40;99.90;;;;;;4893193;29;20048;-65
2022/04/10 03:18:52;;;;;;;5.47;3.05;;;2.40;99.90;;;;;;4901144;29;20040;-65
2022/04/10 03:21:21;;;;;;;7.07;3.50;;;2.40;99.90;;;;;;4900712;29;20044;-65
2022/04/10 03:23:48;;;;;;;9.63;3.78;;;2.40;99.90;;;;;;4897986;29;20048;-65
2022/04/10 03:26:15;;;;;;;4.85;2.30;;;2.40;99.90;;;;;;4892942;29;20080;-65
2022/04/10 03:28:41;;;;;;;11.55;3.30;;;2.40;99.90;;;;;;4901107;29;20079;-65
2022/04/10 03:31:09;;;;;;;8.48;3.22;;;2.40;99.90;;;;;;4898037;29;20326;-65
2022/04/10 03:33:36;;;;;;;10.07;3.67;;;2.40;99.90;;;;;;4892885;29;20291;-65
2022/04/10 03:36:03;;;;;;;8.43;3.50;;;2.40;99.90;;;;;;4900821;29;20528;-65
2022/04/10 03:38:30;;;;;;;;;;;2.40;99.90;;;;;;4916592;29;20043;-65
2022/04/10 03:40:57;;;;;;;6.60;3.15;;;2.40;99.90;;;;;;4901229;29;20030;-65
2022/04/10 03:43:25;;;;;;;;;;;2.40;99.90;;;;;;4900651;29;20071;-64
2022/04/10 03:45:52;;;;;;;7.22;3.60;;;2.40;99.90;;;;;;4900744;29;20023;-65
2022/04/10 03:48:19;;;;;;;;;;;2.40;99.90;;;;;;4893616;29;20058;-65
2022/04/10 03:50:46;;;;;;;6.97;3.33;;;2.40;99.90;;;;;;4895037;29;20391;-65
2022/04/10 03:53:16;;;;;;;6.07;2.97;;;2.50;99.90;;;;;;4900459;29;20398;-65
2022/04/10 03:55:44;;;;;;;7.53;3.40;;;2.50;99.90;;;;;;4884989;29;20047;-65
2022/04/10 03:58:11;;;;;;;9.00;3.22;;;2.50;99.90;;;;;;4892642;29;20076;-65
2022/04/10 04:00:38;;;;;;;6.45;3.13;;;2.40;99.90;;;;;;4900104;29;20390;-65
2022/04/10 04:03:10;;;;;;;7.53;3.85;;;2.40;99.90;;;;;;4900355;29;20056;-65
2022/04/10 04:05:38;;;;;;;7.53;4.05;;;2.30;99.90;;;;;;4893528;29;20055;-65
2022/04/10 04:08:09;;;;;;;6.93;3.63;;;2.30;99.90;;;;;;4898018;29;20056;-65
2022/04/10 04:10:36;;;;;;;8.30;3.92;;;2.20;99.90;;;;;;4900017;29;20078;-65
2022/04/10 04:13:04;;;;;;;10.02;3.85;;;2.10;99.90;;;;;;4897596;29;20502;-65
2022/04/10 04:15:32;;;;;;;10.38;4.15;;;2.10;99.90;;;;;;4892564;29;20453;-65
2022/04/10 04:17:59;;;;;;;;;;;2.10;99.90;;;;;;4900526;29;20047;-65
2022/04/10 04:20:26;;;;;;;6.47;3.03;;;2.10;99.90;;;;;;4887922;29;19922;-65
2022/04/10 04:22:54;;;;;;;6.38;3.65;;;2.10;99.90;;;;;;4892241;29;20147;-65
2022/04/10 04:25:21;;;;;;;7.30;3.83;;;2.10;99.90;;;;;;4899706;29;20058;-65
2022/04/10 04:27:50;;;;;;;10.07;3.67;;;2.20;99.90;;;;;;4899712;29;20059;-65
2022/04/10 04:30:18;;;;;;;8.25;3.03;;;2.20;99.90;;;;;;4889476;29;20140;-65
2022/04/10 04:32:47;;;;;;;6.82;3.35;;;2.20;99.90;;;;;;4894467;29;20075;-65
2022/04/10 04:35:15;;;;;;;6.72;3.10;;;2.10;99.90;;;;;;4916653;29;20044;-65
2022/04/10 04:37:42;;;;;;;11.07;3.83;;;2.10;99.90;;;;;;4900741;29;20044;-65
2022/04/10 04:40:15;;;;;;;7.45;3.63;;;2.10;99.90;;;;;;4891478;29;20047;-65
2022/04/10 04:42:43;;;;;;;10.52;3.53;;;2.00;99.90;;;;;;4899696;29;20051;-65
2022/04/10 04:45:12;;;;;;;6.47;3.35;;;2.00;99.90;;;;;;4899411;29;20135;-65
2022/04/10 04:47:47;;;;;;;5.43;3.42;;;2.10;99.90;;;;;;4891124;29;20088;-64
2022/04/10 04:50:14;;;;;;;5.20;2.92;;;2.10;99.90;;;;;;4897323;29;20135;-65
2022/04/10 04:52:41;;;;;;;5.18;2.72;;;2.10;99.90;;;;;;4899574;29;20143;-64
2022/04/10 04:55:09;;;;;;;;;;;2.20;99.90;;;;;;4897174;29;20048;-64
2022/04/10 04:57:36;;;;;;;5.28;2.88;;;2.20;99.90;;;;;;4891244;29;20014;-65
2022/04/10 05:00:06;;;;;;;7.40;3.38;;;2.30;99.90;;;;;;4898725;29;20410;-65
2022/04/10 05:02:38;;;;;;;8.95;3.20;;;2.30;99.90;;;;;;4915009;29;20048;-64
2022/04/10 05:05:05;;;;;;;6.90;3.50;;;2.30;99.90;;;;;;4894803;29;20048;-64
2022/04/10 05:07:32;;;;;;;6.95;2.92;;;2.30;99.90;;;;;;4892159;29;20480;-64
2022/04/10 05:09:59;;;;;;;9.23;4.18;;;2.30;99.90;;;;;;4915624;29;20449;-65
2022/04/10 05:12:32;;;;;;;6.88;3.92;;;2.30;99.90;;;;;;4894136;29;20044;-64
2022/04/10 05:15:00;;;;;;;7.78;4.22;;;2.20;99.90;;;;;;4890811;29;20055;-64
2022/04/10 05:17:30;;;;;;;8.98;4.68;;;2.20;99.90;;;;;;4898823;29;20048;-64
2022/04/10 05:19:58;;;;;;;10.35;4.95;;;2.20;99.90;;;;;;4894569;29;20052;-64
2022/04/10 05:22:25;;;;;;;6.60;3.90;;;2.20;99.90;;;;;;4890663;29;20509;-64
2022/04/10 05:25:02;;;;;;;10.30;4.93;;;2.10;99.90;;;;;;4898892;29;20139;-64
2022/04/10 05:27:30;;;;;;;8.80;4.35;;;2.00;99.90;;;;;;4898645;29;20054;-64
2022/04/10 05:29:57;;;;;;;6.28;3.58;;;2.00;99.90;;;;;;4897099;29;20044;-64
2022/04/10 05:32:24;;;;;;;;;;;2.10;99.90;;;;;;4891279;29;20115;-64
2022/04/10 05:34:51;;;;;;;10.32;4.75;;;2.00;99.90;;;;;;4898619;29;19927;-64
2022/04/10 05:37:20;;;;;;;12.00;4.70;;;2.00;99.90;;;;;;4888231;29;20506;-64
2022/04/10 05:39:50;;;;;;;7.88;4.50;;;2.00;99.90;;;;;;4906208;29;20437;-64
2022/04/10 05:42:17;;;;;;;9.07;4.78;;;2.00;99.90;;;;;;4915662;29;20044;-64
2022/04/10 05:44:44;;;;;;;8.20;4.75;;;2.00;99.90;;;;;;4898466;29;20048;-64
2022/04/10 05:47:12;;;;;;;10.00;4.47;;;2.00;99.90;;;;;;4889098;29;20041;-64
2022/04/10 05:49:40;;;;;;;10.45;4.80;;;2.10;99.90;;;;;;4892162;29;20539;-64
2022/04/10 05:52:07;;;;;;;10.80;4.70;;;2.10;99.90;;;;;;4898512;29;20039;-64
2022/04/10 05:54:36;;;;;;;13.07;6.28;;;2.20;99.90;;;;;;4898264;29;20051;-63
2022/04/10 05:57:04;;;;;;;11.40;5.82;;;2.20;99.90;;;;;;4887826;29;20135;-64
2022/04/10 05:59:31;;;;;;;11.00;5.28;;;2.30;99.90;;;;;;4898007;29;20068;-64
2022/04/10 06:01:58;;;;;;;11.55;5.40;;;2.30;99.90;;;;;;4898702;29;20076;-64
2022/04/10 06:04:25;;;;;;;10.55;5.40;;;2.30;99.90;;;;;;4893298;29;20108;-64
2022/04/10 06:06:52;;;;;;;8.15;4.47;;;2.30;99.90;;;;;;4893559;29;20108;-64
2022/04/10 06:09:33;;;;;;;8.32;3.92;;;2.20;99.90;;;;;;4898047;29;20536;-64
2022/04/10 06:12:00;;;;;;;7.00;4.00;;;2.20;99.90;;;;;;4898346;29;20146;-64
2022/04/10 06:14:34;;;;;;;8.35;5.30;;;2.30;99.90;;;;;;4896063;29;20517;-64
2022/04/10 06:17:03;;;;;;;8.55;4.80;;;2.30;99.90;;;;;;4894772;29;20099;-64
2022/04/10 06:19:31;;;;;;;9.27;4.15;;;2.40;99.90;;;;;;4913579;29;20041;-64
2022/04/10 06:21:58;;;;;;;7.50;4.68;;;2.40;99.90;;;;;;4889603;29;20096;-64
2022/04/10 06:24:27;;;;;;;8.95;4.25;;;2.60;99.90;;;;;;4890421;29;20047;-64
2022/04/10 06:26:54;;;;;;;11.27;4.60;;;2.60;99.90;;;;;;4900259;29;20068;-64
2022/04/10 06:29:22;;;;;;;8.05;4.60;;;2.70;99.90;;;;;;4893748;29;20521;-64
2022/04/10 06:31:55;;;;;;;10.70;5.03;;;2.80;99.90;;;;;;4898044;29;20391;-64
2022/04/10 06:34:26;;;;;;;9.27;4.55;;;3.00;99.90;;;;;;4902024;29;20143;-64
2022/04/10 06:36:53;;;;;;;11.13;5.57;;;3.20;99.90;;;;;;4892925;29;20109;-64
2022/04/10 06:39:21;;;;;;;7.18;4.38;;;3.30;99.90;;;;;;4907953;29;20526;-64
2022/04/10 06:41:50;;;;;;;6.25;4.32;;;3.20;99.90;;;;;;4918600;29;20071;-64
2022/04/10 06:44:31;;;;;;;6.22;3.83;;;3.20;99.90;;;;;;4900013;29;20067;-64
2022/04/10 06:47:21;;;;;;;8.68;4.47;;;3.30;99.90;;;;;;4905396;29;20619;-64
2022/04/10 06:49:49;;;;;;;7.40;4.75;;;3.40;99.90;;;;;;4901317;29;20056;-64
2022/04/10 06:52:16;;;;;;;9.65;4.65;;;3.40;99.90;;;;;;4901454;29;20056;-64
2022/04/10 06:54:42;;;;;;;5.80;4.00;;;3.20;99.90;;;;;;4911184;29;20040;-64
2022/04/10 06:57:11;;;;;;;11.10;5.95;;;2.80;99.90;;;;;;4899401;29;20040;-64
2022/04/10 06:59:38;;;;;;;10.45;4.78;;;2.60;99.90;;;;;;4901093;29;20427;-64
2022/04/10 07:02:09;;;;;;;11.10;4.60;;;2.50;99.90;;;;;;4867812;29;20053;-64
2022/04/10 07:04:36;;;;;;;9.60;5.47;;;2.50;99.90;;;;;;4888609;29;20068;-64
2022/04/10 07:07:05;;;;;;;14.07;5.60;;;2.60;99.90;;;;;;4898366;29;20092;-64
2022/04/10 07:09:31;;;;;;;16.88;8.82;;;2.60;99.90;;;;;;4901024;29;20519;-64
2022/04/10 07:11:58;;;;;;;13.57;5.80;;;2.70;99.90;;;;;;4916674;29;20055;-64
2022/04/10 07:14:37;;;;;;;17.00;7.20;;;2.90;99.90;;;;;;4909153;29;20048;-64
2022/04/10 07:17:04;;;;;;;8.95;4.97;;;3.20;99.90;;;;;;4901173;29;20501;-64
2022/04/10 07:19:31;;;;;;;8.35;5.18;;;3.50;99.90;;;;;;4900580;29;20078;-64
2022/04/10 07:24:45;;;;;;;6.55;4.72;;;3.80;99.90;;;;;;4890308;29;20052;-64
2022/04/10 07:27:12;;;;;;;10.60;5.03;;;3.90;99.90;;;;;;4903730;23;20057;-63
2022/04/10 07:29:51;;;;;;;7.63;4.95;;;4.10;99.90;;;;;;4880782;29;20045;-63
2022/04/10 07:32:19;;;;;;;9.77;5.07;;;4.20;99.90;;;;;;4881709;29;20044;-63
2022/04/10 07:34:54;;;;;;;8.48;4.75;;;4.10;99.90;;;;;;4882255;29;20509;-63
2022/04/10 07:37:34;;;;;;;7.13;4.65;;;4.10;99.90;;;;;;4881849;29;20482;-63
2022/04/10 07:40:02;;;;;;;8.65;4.50;;;3.90;99.90;;;;;;4863166;29;20087;-63
2022/04/10 07:42:31;;;;;;;10.38;4.80;;;4.20;99.90;;;;;;4863254;29;20049;-63
2022/04/10 07:45:10;;;;;;;6.93;4.13;;;4.50;99.90;;;;;;4878012;29;20407;-61
2022/04/10 07:47:49;;;;;;;10.50;4.85;;;4.70;99.90;;;;;;4878673;29;20104;-61
2022/04/10 07:50:15;;;;;;;6.45;4.28;;;4.70;99.90;;;;;;4862880;29;20091;-62
2022/04/10 07:52:43;;;;;;;6.90;3.92;;;4.40;99.90;;;;;;4878987;29;20056;-62
2022/04/10 07:55:19;;;;;;;9.60;4.72;;;4.20;99.90;;;;;;4861109;29;20096;-62
2022/04/10 07:57:48;;;;;;;7.10;4.88;;;4.30;99.90;;;;;;4878349;29;20135;-62
2022/04/10 08:00:17;;;;;;;11.30;4.20;;;4.70;99.90;;;;;;4862526;29;20506;-62
2022/04/10 08:02:54;;;;;;;9.95;3.88;;;4.80;99.90;;;;;;4875038;29;20060;-64
2022/04/10 08:05:31;;;;;;;11.88;4.38;;;4.40;99.90;;;;;;4878267;29;20052;-61
2022/04/10 08:08:02;;;;;;;10.45;5.03;;;4.40;99.90;;;;;;4879602;29;20498;-61
2022/04/10 08:10:29;;;;;;;6.88;3.92;;;4.40;99.90;;;;;;4879325;29;20053;-62
2022/04/10 08:12:58;;;;;;;8.35;4.30;;;4.20;99.90;;;;;;4876944;29;20049;-62
2022/04/10 08:15:26;;;;;;;6.32;3.60;;;3.90;99.90;;;;;;4879786;29;20446;-62
2022/04/10 08:17:53;;;;;;;7.22;4.20;;;4.20;99.90;;;;;;4879111;29;20056;-62
2022/04/10 08:20:20;;;;;;;7.63;4.43;;;4.50;99.90;;;;;;4879146;29;20041;-62
2022/04/10 08:22:53;;;;;;;4.55;3.40;;;4.90;99.90;;;;;;4874613;29;20037;-62
2022/04/10 08:25:23;;;;;;;6.45;3.65;;;4.90;99.90;;;;;;4879325;29;20521;-62
2022/04/10 08:27:51;;;;;;;6.32;3.50;;;4.60;99.90;;;;;;4879109;29;20045;-63
2022/04/10 08:30:18;;;;;;;8.48;3.90;;;4.60;99.90;;;;;;4873977;29;20064;-62
2022/04/10 08:32:45;;;;;;;7.97;4.15;;;5.00;99.90;;;;;;4879182;29;20101;-62
2022/04/10 08:35:12;;;;;;;7.38;4.10;;;5.60;99.90;;;;;;4879215;29;20037;-62
2022/04/10 08:37:40;;;;;;;7.75;3.40;;;6.00;99.90;;;;;;4877914;29;20048;-62
2022/04/10 08:40:07;;;;;;;8.73;3.47;;;6.40;99.90;;;;;;4877694;29;20097;-62
2022/04/10 08:42:35;;;;;;;6.60;3.33;;;6.90;99.90;;;;;;4878920;29;20041;-62
2022/04/10 08:45:03;;;;;;;6.35;3.45;;;7.20;99.90;;;;;;4878974;29;20514;-63
2022/04/10 08:47:30;;;;;;;5.63;3.17;;;7.40;99.90;;;;;;4878306;29;20053;-62
2022/04/10 08:50:00;;;;;;;8.98;4.05;;;6.50;99.90;;;;;;4877539;29;20056;-62
2022/04/10 08:52:28;;;;;;;6.65;3.50;;;6.20;99.90;;;;;;4860259;29;20060;-62
2022/04/10 08:54:55;;;;;;;6.63;3.15;;;5.70;99.90;;;;;;4860345;29;20141;-62
2022/04/10 08:57:21;;;;;;;4.60;3.10;;;5.00;99.90;;;;;;4870002;29;20122;-62
2022/04/10 08:59:48;;;;;;;5.50;3.15;;;4.40;99.90;;;;;;4878374;29;20045;-63
2022/04/10 09:02:15;;;;;;;4.45;3.15;;;4.10;99.90;;;;;;4878807;29;20041;-62
2022/04/10 09:04:42;;;;;;;8.27;4.35;;;3.90;99.90;;;;;;4874804;29;20041;-62
2022/04/10 09:07:10;;;;;;;8.48;4.65;;;3.90;99.90;;;;;;4878259;29;20060;-61
2022/04/10 09:09:42;;;;;;;7.00;3.60;;;3.90;99.90;;;;;;4878349;29;20113;-62
2022/04/10 09:12:09;;;;;;;9.27;4.28;;;4.10;99.90;;;;;;4878410;29;20105;-62
2022/04/10 09:14:40;;;;;;;7.75;4.00;;;4.20;99.90;;;;;;4871814;29;20041;-62
2022/04/10 09:17:18;;;;;;;7.38;3.92;;;4.10;99.90;;;;;;4878291;29;20045;-62
2022/04/10 09:19:53;;;;;;;9.10;6.18;;;3.90;99.90;;;;;;4877986;29;20049;-62
2022/04/10 09:22:26;;;;;;;12.52;6.35;;;3.60;99.90;;;;;;4870390;29;20073;-62
2022/04/10 09:25:13;;;;;;;12.13;6.80;;;3.60;99.90;;;;;;4878291;29;20064;-62
2022/04/10 09:27:47;;;;;;;9.68;6.15;;;3.60;99.90;;;;;;4878155;29;20069;-61
2022/04/10 09:30:16;;;;;;;10.27;6.05;;;3.60;99.90;;;;;;4876293;29;20053;-62
2022/04/10 09:32:52;;;;;;;9.25;6.07;;;3.50;99.90;;;;;;4877985;29;20053;-62
2022/04/10 09:35:21;;;;;;;8.65;6.13;;;3.60;99.90;;;;;;4878269;29;20056;-62
2022/04/10 09:37:50;;;;;;;12.93;6.90;;;3.80;99.90;;;;;;4877758;29;20041;-62
2022/04/10 09:40:31;;;;;;;9.23;5.43;;;4.00;99.90;;;;;;4872076;29;20056;-61
2022/04/10 09:43:07;;;;;;;9.45;6.03;;;4.20;99.90;;;;;;4877855;29;20052;-61
2022/04/10 09:45:41;;;;;;;10.75;6.30;;;4.40;99.90;;;;;;4878042;29;20041;-62
2022/04/10 09:48:24;;;;;;;10.02;4.88;;;4.60;99.90;;;;;;4875060;29;20120;-62
2022/04/10 09:51:02;;;;;;;7.03;4.63;;;4.80;99.90;;;;;;4877498;29;20065;-62
2022/04/10 09:53:29;;;;;;;;;;;4.90;99.90;;;;;;4878305;29;20109;-62
2022/04/10 09:56:02;;;;;;;6.03;4.00;;;4.90;99.90;;;;;;4877654;29;19927;-62
2022/04/10 09:58:30;;;;;;;12.05;6.32;;;4.80;99.90;;;;;;4873903;29;20510;-62
2022/04/10 10:00:58;;;;;;;13.23;7.32;;;4.60;99.90;;;;;;4877253;29;20566;-62
2022/04/10 10:03:36;;;;;;;11.82;5.88;;;4.50;99.90;;;;;;4878089;29;20447;-62
2022/04/10 10:06:07;;;;;;;67.30;25.40;;;4.10;99.90;;;;;;4877632;29;20091;-61
2022/04/10 10:08:35;;;;;;;24.25;10.55;;;3.70;99.90;;;;;;4872028;29;20049;-61
2022/04/10 10:11:03;;;;;;;15.20;8.45;;;3.50;99.90;;;;;;4877310;29;20085;-62
2022/04/10 10:13:30;;;;;;;22.23;9.52;;;3.60;99.90;;;;;;4877652;29;20069;-61
2022/04/10 10:15:57;;;;;;;;;;;3.80;99.90;;;;;;4878201;29;20125;-62
2022/04/10 10:18:25;;;;;;;11.70;6.70;;;4.00;99.90;;;;;;4870262;29;20011;-62
2022/04/10 10:20:52;;;;;;;9.52;6.00;;;4.30;99.90;;;;;;4877206;29;20044;-62
2022/04/10 10:23:22;;;;;;;8.05;5.72;;;4.50;99.90;;;;;;4877571;29;20049;-62
2022/04/10 10:26:03;;;;;;;8.43;4.57;;;4.70;99.90;;;;;;4870054;29;20505;-61
2022/04/10 10:28:42;;;;;;;8.23;4.53;;;4.80;99.90;;;;;;4870132;29;20559;-62
2022/04/10 10:31:31;;;;;;;9.05;4.90;;;5.00;99.90;;;;;;4877110;29;20045;-62
2022/04/10 10:34:05;;;;;;;7.68;5.13;;;5.40;99.90;;;;;;4872611;29;20105;-62
2022/04/10 10:36:31;;;;;;;7.72;4.65;;;5.70;99.90;;;;;;4876911;29;20109;-62
2022/04/10 10:38:59;;;;;;;6.18;4.70;;;5.60;99.90;;;;;;4877287;29;20056;-62
2022/04/10 10:41:26;;;;;;;6.72;4.82;;;5.50;99.90;;;;;;4877194;29;20451;-62
2022/04/10 10:43:55;;;;;;;6.82;4.82;;;5.60;99.90;;;;;;4870656;29;20045;-62
2022/04/10 10:46:33;;;;;;;8.20;5.18;;;5.60;99.90;;;;;;4856785;29;20048;-62
2022/04/10 10:49:20;;;;;;;9.02;5.57;;;5.50;99.90;;;;;;4860623;29;20051;-62
2022/04/10 10:51:48;;;;;;;11.48;6.72;;;5.30;99.90;;;;;;4870694;29;20426;-62
2022/04/10 10:54:36;;;;;;;9.98;5.97;;;5.20;99.90;;;;;;4869274;29;20109;-62
2022/04/10 10:57:25;;;;;;;12.57;7.00;;;5.20;99.90;;;;;;4863132;29;20041;-62
2022/04/10 11:00:04;;;;;;;8.70;5.63;;;5.30;99.90;;;;;;4857803;29;20495;-62
2022/04/10 11:02:36;;;;;;;8.90;5.10;;;5.50;99.90;;;;;;4858070;29;20118;-62
2022/04/10 11:05:30;;;;;;;8.63;5.18;;;5.70;99.90;;;;;;4857845;29;20056;-63
2022/04/10 11:07:58;;;;;;;7.43;3.95;;;5.70;99.90;;;;;;4858168;29;20061;-63
2022/04/10 11:10:28;;;;;;;7.68;5.20;;;5.40;99.90;;;;;;4857890;29;20097;-62
2022/04/10 11:13:04;;;;;;;6.85;4.43;;;4.70;99.90;;;;;;4860205;29;20041;-62
2022/04/10 11:15:54;;;;;;;6.78;4.20;;;4.40;99.90;;;;;;4861453;29;20045;-62
2022/04/10 11:18:33;;;;;;;7.57;3.97;;;4.50;99.90;;;;;;4862914;29;20140;-62
2022/04/10 11:21:09;;;;;;;6.93;4.70;;;4.40;99.90;;;;;;4879218;29;20053;-62
2022/04/10 11:23:46;;;;;;;6.82;4.75;;;4.20;99.90;;;;;;4876124;29;20037;-62
2022/04/10 11:26:15;;;;;;;8.80;4.90;;;4.10;99.90;;;;;;4875310;29;20060;-62
2022/04/10 11:29:00;;;;;;;11.13;6.25;;;4.00;99.90;;;;;;4874041;29;20049;-62
2022/04/10 11:31:47;;;;;;;7.15;4.75;;;3.90;99.90;;;;;;4870443;29;20048;-62
2022/04/10 11:34:28;;;;;;;12.30;5.97;;;3.90;99.90;;;;;;4877914;29;20120;-63
2022/04/10 11:36:58;;;;;;;8.48;5.93;;;4.00;99.90;;;;;;4870770;29;20392;-63
2022/04/10 11:39:28;;;;;;;11.10;6.45;;;4.40;99.90;;;;;;4879495;29;20045;-63
2022/04/10 11:42:00;;;;;;;9.18;5.53;;;5.00;99.90;;;;;;4876559;29;20048;-63
2022/04/10 11:44:28;;;;;;;7.60;4.35;;;5.40;99.90;;;;;;4874282;29;20041;-62
2022/04/10 11:46:55;;;;;;;10.48;5.25;;;5.30;99.90;;;;;;4876662;29;20056;-62
2022/04/10 11:49:22;;;;;;;6.32;4.22;;;5.70;99.90;;;;;;4851602;29;20514;-63
2022/04/10 11:51:57;;;;;;;7.35;3.92;;;6.00;99.90;;;;;;4866685;29;20049;-62
2022/04/10 11:54:31;;;;;;;6.03;3.85;;;6.20;99.90;;;;;;4877083;29;20040;-63
2022/04/10 11:57:03;;;;;;;6.78;3.97;;;6.50;99.90;;;;;;4876559;29;20045;-63
2022/04/10 11:59:38;;;;;;;11.02;5.65;;;6.80;99.90;;;;;;4877462;29;20049;-63
2022/04/10 12:02:08;;;;;;;7.22;4.32;;;7.20;99.90;;;;;;4872638;29;20564;-63
2022/04/10 12:04:36;;;;;;;13.10;6.25;;;7.70;99.90;;;;;;4879467;29;20403;-62
2022/04/10 12:07:13;;;;;;;6.32;4.45;;;8.00;99.90;;;;;;4875465;29;20045;-62
2022/04/10 12:09:41;;;;;;;5.07;3.33;;;8.50;99.90;;;;;;4878562;29;20101;-63
2022/04/10 12:12:08;;;;;;;4.35;3.20;;;8.90;99.90;;;;;;4875365;29;20117;-63
2022/04/10 12:14:35;;;;;;;3.72;2.92;;;9.00;99.90;;;;;;4879380;29;20056;-63
2022/04/10 12:17:02;;;;;;;5.63;3.85;;;8.60;99.90;;;;;;4875516;29;20104;-62
2022/04/10 12:19:36;;;;;;;5.85;3.35;;;8.00;99.90;;;;;;4877133;29;20101;-62
2022/04/10 12:22:07;;;;;;;6.88;4.22;;;7.80;99.90;;;;;;4875419;29;20045;-62
2022/04/10 12:24:44;;;;;;;4.30;2.85;;;7.40;99.90;;;;;;4878212;29;20049;-62
2022/04/10 12:27:12;;;;;;;5.07;3.17;;;6.90;99.90;;;;;;4875171;29;20114;-62
2022/04/10 12:29:38;;;;;;;;;;;6.80;99.90;;;;;;4876772;29;20049;-62
2022/04/10 12:32:08;;;;;;;5.68;3.20;;;6.80;99.90;;;;;;4875473;29;20344;-62
2022/04/10 12:34:39;;;;;;;5.15;2.92;;;6.90;99.90;;;;;;4879000;29;20049;-62
2022/04/10 12:37:11;;;;;;;6.35;4.15;;;7.00;99.90;;;;;;4868340;29;20049;-63
2022/04/10 12:39:39;;;;;;;5.93;3.33;;;7.20;99.90;;;;;;4873450;29;20490;-63
2022/04/10 12:42:11;;;;;;;5.47;3.80;;;7.20;99.90;;;;;;4863811;29;20071;-62
2022/04/10 12:44:39;;;;;;;4.72;3.20;;;7.20;99.90;;;;;;4869402;29;20046;-63
2022/04/10 12:47:08;;;;;;;3.78;3.17;;;7.30;99.90;;;;;;4865207;29;20464;-63
2022/04/10 12:49:39;;;;;;;5.72;2.95;;;7.50;99.90;;;;;;4864196;29;20060;-63
2022/04/10 12:52:09;;;;;;;7.32;3.38;;;7.50;99.90;;;;;;4865984;29;20058;-62
2022/04/10 12:54:40;;;;;;;4.75;3.53;;;7.60;99.90;;;;;;4856634;29;20056;-62
2022/04/10 12:57:23;;;;;;;5.68;3.40;;;7.50;99.90;;;;;;4870717;29;20046;-62
2022/04/10 12:59:50;;;;;;;5.05;3.20;;;7.40;99.90;;;;;;4870002;29;20037;-62
2022/04/10 13:02:28;;;;;;;4.72;3.22;;;7.30;99.90;;;;;;4871727;29;20513;-62
2022/04/10 13:05:10;;;;;;;3.88;2.83;;;7.20;99.90;;;;;;4874640;29;20049;-62
2022/04/10 13:07:52;;;;;;;5.53;3.35;;;6.90;99.90;;;;;;4871268;29;20085;-62
2022/04/10 13:10:19;;;;;;;4.72;2.80;;;6.70;99.90;;;;;;4872491;29;20104;-62
2022/04/10 13:12:45;;;;;;;5.95;3.78;;;6.60;99.90;;;;;;4856240;29;20089;-62
2022/04/10 13:15:28;;;;;;;5.75;3.10;;;6.50;99.90;;;;;;4877429;29;20635;-62